Time;durP1;ratioP1;P1;durP2;ratioP2;P2;SDS_P1;SDS_P2;PMS_P1;PMS_P2;Temp;Humidity;BMP_temperature;BMP_pressure;BME280_temperature;BME280_humidity;BME280_pressure;Samples;Min_cycle;Max_cycle;Signal;HPM_P1;HPM_P2
2023/06/19 00:04:05;;;;;;;22.13;13.80;;;;;;;;;;8401852;28;20040;-91
2023/06/19 00:08:10;;;;;;;23.27;14.20;;;;;;;;;;8402895;28;20090;-91
2023/06/19 00:12:14;;;;;;;22.75;13.40;;;;;;;;;;8403069;28;20048;-91
2023/06/19 00:16:19;;;;;;;20.15;12.48;;;;;;;;;;8402296;28;20056;-91
2023/06/19 00:20:25;;;;;;;18.77;12.75;;;;;;;;;;8401606;28;20053;-91
2023/06/19 00:24:29;;;;;;;19.95;13.32;;;;;;;;;;8401736;28;20052;-91
2023/06/19 00:28:34;;;;;;;20.73;13.52;;;;;;;;;;8384903;28;20082;-91
2023/06/19 00:32:46;;;;;;;22.63;13.38;;;;;;;;;;8385014;28;20053;-92
2023/06/19 00:36:55;;;;;;;20.55;13.95;;;;;;;;;;8383360;28;20057;-91
2023/06/19 00:41:00;;;;;;;21.10;13.30;;;;;;;;;;8383132;28;20048;-92
2023/06/19 00:45:06;;;;;;;24.10;13.65;;;;;;;;;;8384779;28;20056;-92
2023/06/19 00:49:10;;;;;;;23.08;13.50;;;;;;;;;;8382979;28;20056;-91
2023/06/19 00:53:17;;;;;;;18.52;12.82;;;;;;;;;;8382739;28;20056;-91
2023/06/19 00:57:22;;;;;;;20.73;12.80;;;;;;;;;;8399973;28;20049;-91
2023/06/19 01:01:27;;;;;;;27.58;15.70;;;;;;;;;;8400714;28;20055;-91
2023/06/19 01:05:32;;;;;;;22.95;14.48;;;;;;;;;;8388509;28;20098;-92
2023/06/19 01:09:45;;;;;;;25.17;14.90;;;;;;;;;;8407763;28;20170;-92
2023/06/19 01:13:57;;;;;;;25.40;14.20;;;;;;;;;;8407685;28;20098;-91
2023/06/19 01:18:03;;;;;;;22.75;14.15;;;;;;;;;;8389070;28;20049;-91
2023/06/19 01:22:10;;;;;;;23.85;13.85;;;;;;;;;;8406952;28;20045;-91
2023/06/19 01:26:14;;;;;;;19.83;13.15;;;;;;;;;;8405653;28;20048;-91
2023/06/19 01:30:19;;;;;;;19.40;12.23;;;;;;;;;;8405945;28;20102;-92
2023/06/19 01:34:24;;;;;;;20.17;13.25;;;;;;;;;;8405298;28;20048;-92
2023/06/19 01:38:33;;;;;;;21.00;12.80;;;;;;;;;;8406023;28;20117;-92
2023/06/19 01:42:38;;;;;;;17.27;11.70;;;;;;;;;;8387685;28;20045;-91
2023/06/19 01:46:43;;;;;;;20.42;12.30;;;;;;;;;;8388063;28;20102;-91
2023/06/19 01:50:48;;;;;;;18.13;11.98;;;;;;;;;;8387152;28;20045;-91
2023/06/19 01:54:54;;;;;;;21.13;13.50;;;;;;;;;;8387298;28;20048;-92
2023/06/19 01:58:59;;;;;;;21.17;12.55;;;;;;;;;;8405214;28;20067;-91
2023/06/19 02:03:03;;;;;;;20.35;12.68;;;;;;;;;;8387193;28;20045;-92
2023/06/19 02:07:08;;;;;;;22.17;13.90;;;;;;;;;;8405273;28;20048;-92
2023/06/19 02:11:14;;;;;;;20.50;12.60;;;;;;;;;;8404432;28;20079;-92
2023/06/19 02:15:18;;;;;;;19.42;12.82;;;;;;;;;;8387014;28;20048;-91
2023/06/19 02:19:22;;;;;;;23.23;13.10;;;;;;;;;;8403895;28;20067;-91
2023/06/19 02:23:27;;;;;;;19.52;12.50;;;;;;;;;;8404348;28;20044;-91
2023/06/19 02:27:33;;;;;;;23.65;13.63;;;;;;;;;;8386392;28;20059;-92
2023/06/19 02:31:37;;;;;;;20.95;13.10;;;;;;;;;;8386304;28;20056;-91
2023/06/19 02:35:44;;;;;;;19.88;12.15;;;;;;;;;;8386429;28;20062;-92
2023/06/19 02:39:48;;;;;;;19.83;12.40;;;;;;;;;;8385834;28;20056;-92
2023/06/19 02:43:55;;;;;;;20.33;12.32;;;;;;;;;;8385839;28;20048;-91
2023/06/19 02:47:59;;;;;;;35.35;20.23;;;;;;;;;;8403466;28;20053;-92
2023/06/19 02:52:03;;;;;;;47.03;23.95;;;;;;;;;;8386932;28;20051;-92
2023/06/19 02:56:08;;;;;;;20.83;14.07;;;;;;;;;;8385041;28;20048;-92
2023/06/19 03:00:15;;;;;;;18.67;12.38;;;;;;;;;;8402833;28;20488;-91
2023/06/19 03:04:20;;;;;;;18.02;12.18;;;;;;;;;;8404225;28;20048;-91
2023/06/19 03:08:24;;;;;;;20.80;13.05;;;;;;;;;;8402599;28;20044;-91
2023/06/19 03:12:28;;;;;;;18.20;11.50;;;;;;;;;;8402646;28;20051;-91
2023/06/19 03:16:35;;;;;;;19.00;12.05;;;;;;;;;;8403523;28;20048;-91
2023/06/19 03:20:40;;;;;;;17.15;12.35;;;;;;;;;;8403161;28;20131;-91
2023/06/19 03:24:44;;;;;;;19.00;12.02;;;;;;;;;;8383849;28;20053;-91
2023/06/19 03:28:48;;;;;;;17.20;11.75;;;;;;;;;;8385727;28;20166;-91
2023/06/19 03:32:54;;;;;;;18.35;12.05;;;;;;;;;;8401864;28;20055;-91
2023/06/19 03:36:58;;;;;;;16.27;12.02;;;;;;;;;;8401710;28;20075;-92
2023/06/19 03:41:03;;;;;;;18.92;11.95;;;;;;;;;;8401388;28;20082;-91
2023/06/19 03:45:10;;;;;;;16.10;11.77;;;;;;;;;;8383544;28;20097;-92
2023/06/19 03:49:16;;;;;;;17.33;11.23;;;;;;;;;;8402362;28;20048;-91
2023/06/19 03:53:23;;;;;;;16.25;10.75;;;;;;;;;;8385160;28;20052;-91
2023/06/19 03:57:27;;;;;;;16.38;11.38;;;;;;;;;;8400937;28;20065;-91
2023/06/19 04:01:32;;;;;;;15.23;10.70;;;;;;;;;;8382945;28;20056;-91
2023/06/19 04:05:38;;;;;;;16.63;12.05;;;;;;;;;;8401018;28;20044;-91
2023/06/19 04:09:42;;;;;;;20.48;14.82;;;;;;;;;;8400606;28;20103;-90
2023/06/19 04:13:47;;;;;;;15.15;11.57;;;;;;;;;;8400582;28;20048;-91
2023/06/19 04:17:52;;;;;;;13.18;8.75;;;;;;;;;;8383236;28;20074;-91
2023/06/19 04:21:57;;;;;;;12.25;10.15;;;;;;;;;;8400839;28;20049;-91
2023/06/19 04:26:01;;;;;;;14.02;10.00;;;;;;;;;;8401065;28;20071;-89
2023/06/19 04:30:09;;;;;;;11.90;9.35;;;;;;;;;;8383647;28;20053;-89
2023/06/19 04:34:14;;;;;;;12.48;9.35;;;;;;;;;;8401462;28;20049;-90
2023/06/19 04:38:23;;;;;;;13.10;9.88;;;;;;;;;;8399703;28;20051;-90
2023/06/19 04:42:28;;;;;;;12.40;8.75;;;;;;;;;;8400231;28;20048;-91
2023/06/19 04:46:33;;;;;;;15.02;11.65;;;;;;;;;;8382287;28;20090;-91
2023/06/19 04:50:38;;;;;;;15.38;9.93;;;;;;;;;;8399685;28;20083;-91
2023/06/19 04:54:44;;;;;;;14.57;10.18;;;;;;;;;;8374580;28;20049;-90
2023/06/19 04:58:49;;;;;;;11.88;8.90;;;;;;;;;;8369324;28;20052;-89
2023/06/19 05:02:53;;;;;;;9.65;7.55;;;;;;;;;;8369526;28;20044;-89
2023/06/19 05:06:58;;;;;;;10.07;9.02;;;;;;;;;;8352681;28;20048;-89
2023/06/19 05:11:04;;;;;;;10.25;8.68;;;;;;;;;;8366274;28;20041;-90
2023/06/19 05:15:11;;;;;;;9.80;7.85;;;;;;;;;;8348699;28;20052;-90
2023/06/19 05:19:15;;;;;;;9.23;7.75;;;;;;;;;;8366861;28;20080;-90
2023/06/19 05:23:19;;;;;;;10.10;8.52;;;;;;;;;;8366055;28;20045;-90
2023/06/19 05:27:28;;;;;;;9.18;8.27;;;;;;;;;;8349479;28;20060;-91
2023/06/19 05:31:32;;;;;;;9.50;8.38;;;;;;;;;;8367485;28;20056;-89
2023/06/19 05:35:38;;;;;;;11.48;8.27;;;;;;;;;;8366698;28;20052;-90
2023/06/19 05:39:42;;;;;;;9.77;8.48;;;;;;;;;;8366090;28;20045;-89
2023/06/19 05:43:49;;;;;;;11.35;8.45;;;;;;;;;;8364001;28;20053;-90
2023/06/19 05:47:54;;;;;;;14.68;8.02;;;;;;;;;;8365357;28;20053;-90
2023/06/19 05:51:59;;;;;;;11.27;8.15;;;;;;;;;;8372284;28;20072;-90
2023/06/19 05:56:05;;;;;;;10.68;8.13;;;;;;;;;;8389462;28;20053;-90
2023/06/19 06:00:14;;;;;;;11.00;8.18;;;;;;;;;;8388737;28;20122;-90
2023/06/19 06:04:21;;;;;;;10.63;8.23;;;;;;;;;;8417640;28;20056;-89
2023/06/19 06:08:28;;;;;;;12.65;8.13;;;;;;;;;;8404506;28;20059;-90
2023/06/19 06:12:47;;;;;;;13.90;9.40;;;;;;;;;;8402520;28;20108;-89
2023/06/19 06:17:00;;;;;;;13.95;9.07;;;;;;;;;;8398264;28;20052;-90
2023/06/19 06:21:08;;;;;;;14.37;8.80;;;;;;;;;;8413244;28;20554;-90
2023/06/19 06:25:11;;;;;;;17.88;9.15;;;;;;;;;;8415365;28;20152;-92
2023/06/19 06:29:17;;;;;;;14.20;7.82;;;;;;;;;;8380521;28;20079;-92
2023/06/19 06:33:22;;;;;;;16.35;9.07;;;;;;;;;;8417313;28;20104;-89
2023/06/19 06:37:30;;;;;;;13.73;7.13;;;;;;;;;;8402369;28;20411;-89
2023/06/19 06:41:53;;;;;;;10.60;7.13;;;;;;;;;;8398962;28;20106;-89
2023/06/19 06:46:02;;;;;;;8.07;6.25;;;;;;;;;;8418302;28;20108;-90
2023/06/19 06:50:18;;;;;;;7.93;5.93;;;;;;;;;;8430695;28;20113;-90
2023/06/19 06:54:42;;;;;;;9.13;6.10;;;;;;;;;;8409316;28;20068;-91
2023/06/19 06:58:53;;;;;;;7.15;5.57;;;;;;;;;;8366130;28;20049;-90
2023/06/19 07:02:59;;;;;;;6.53;5.57;;;;;;;;;;8390187;28;20117;-91
2023/06/19 07:07:08;;;;;;;7.35;5.72;;;;;;;;;;8395567;28;20416;-89
2023/06/19 07:11:12;;;;;;;6.75;5.55;;;;;;;;;;8408120;28;20059;-89
2023/06/19 07:15:18;;;;;;;7.13;5.45;;;;;;;;;;8413891;28;20060;-91
2023/06/19 07:19:26;;;;;;;6.78;5.38;;;;;;;;;;8409605;28;20076;-90
2023/06/19 07:23:33;;;;;;;10.85;5.78;;;;;;;;;;8403467;28;20144;-88
2023/06/19 07:27:38;;;;;;;6.68;5.85;;;;;;;;;;8402060;28;20052;-91
2023/06/19 07:31:46;;;;;;;6.95;5.25;;;;;;;;;;8405557;28;20055;-91
2023/06/19 07:40:16;;;;;;;6.38;4.90;;;;;;;;;;8405057;28;20096;-88
2023/06/19 07:44:20;;;;;;;6.13;4.95;;;;;;;;;;8406180;28;20053;-89
2023/06/19 07:48:24;;;;;;;5.95;5.28;;;;;;;;;;8406310;28;20098;-90
2023/06/19 07:52:27;;;;;;;5.88;5.18;;;;;;;;;;8405970;28;20056;-90
2023/06/19 07:56:33;;;;;;;6.38;5.18;;;;;;;;;;8402566;28;20115;-90
2023/06/19 08:00:38;;;;;;;6.68;4.55;;;;;;;;;;8402739;28;20076;-90
2023/06/19 08:04:50;;;;;;;5.68;4.43;;;;;;;;;;8400123;28;20044;-90
2023/06/19 08:13:39;;;;;;;8.68;5.72;;;;;;;;;;8218996;28;20054;-90
2023/06/19 08:17:42;;;;;;;9.68;5.55;;;;;;;;;;8252256;28;20062;-88
2023/06/19 08:21:45;;;;;;;8.10;5.88;;;;;;;;;;8241002;28;20058;-89
2023/06/19 08:25:50;;;;;;;10.25;5.70;;;;;;;;;;8237699;28;20530;-90
2023/06/19 08:29:55;;;;;;;9.43;5.28;;;;;;;;;;8236194;28;20478;-87
2023/06/19 08:34:00;;;;;;;6.18;4.72;;;;;;;;;;8242580;28;20147;-87
2023/06/19 08:38:03;;;;;;;8.60;5.45;;;;;;;;;;8255050;28;20086;-86
2023/06/19 08:42:07;;;;;;;6.68;5.35;;;;;;;;;;8228682;28;20069;-87
2023/06/19 08:46:17;;;;;;;6.57;4.95;;;;;;;;;;8233817;28;20035;-89
2023/06/19 08:50:26;;;;;;;5.85;4.50;;;;;;;;;;8254875;28;20058;-88
2023/06/19 08:54:30;;;;;;;5.53;4.28;;;;;;;;;;8237285;28;20113;-89
2023/06/19 08:58:33;;;;;;;6.00;4.80;;;;;;;;;;8243077;28;20258;-86
2023/06/19 09:02:43;;;;;;;6.40;4.40;;;;;;;;;;8298613;28;20504;-93
2023/06/19 09:06:50;;;;;;;6.85;4.35;;;;;;;;;;8401109;28;20059;-89
2023/06/19 09:10:59;;;;;;;6.20;4.72;;;;;;;;;;8400016;28;20143;-88
2023/06/19 09:15:03;;;;;;;5.75;4.88;;;;;;;;;;8398614;28;20049;-88
2023/06/19 09:19:08;;;;;;;8.05;5.28;;;;;;;;;;8425348;28;20590;-88
2023/06/19 09:23:15;;;;;;;7.97;5.47;;;;;;;;;;8413680;28;20080;-87
2023/06/19 09:27:20;;;;;;;8.65;5.85;;;;;;;;;;8426529;28;20131;-87
2023/06/19 09:31:34;;;;;;;6.03;5.05;;;;;;;;;;8415850;28;20511;-88
2023/06/19 09:35:40;;;;;;;7.00;5.40;;;;;;;;;;8412603;28;20059;-88
2023/06/19 09:39:44;;;;;;;6.32;5.22;;;;;;;;;;8439966;28;20403;-88
2023/06/19 09:43:54;;;;;;;6.00;5.00;;;;;;;;;;8414005;28;20072;-91
2023/06/19 09:48:00;;;;;;;7.65;5.57;;;;;;;;;;8411151;28;20048;-89
2023/06/19 09:52:09;;;;;;;7.95;5.57;;;;;;;;;;8404831;28;20044;-87
2023/06/19 09:56:13;;;;;;;7.07;5.35;;;;;;;;;;8416352;28;20080;-88
2023/06/19 10:00:21;;;;;;;8.77;5.45;;;;;;;;;;8412814;28;20104;-88
2023/06/19 10:04:25;;;;;;;7.75;5.25;;;;;;;;;;8407070;28;20060;-87
2023/06/19 10:08:40;;;;;;;6.18;5.38;;;;;;;;;;8388599;28;20045;-87
2023/06/19 10:12:47;;;;;;;6.63;5.10;;;;;;;;;;8411860;28;20476;-90
2023/06/19 10:16:51;;;;;;;8.68;5.45;;;;;;;;;;8412117;28;20058;-88
2023/06/19 10:20:58;;;;;;;7.57;5.35;;;;;;;;;;8426111;28;20052;-88
2023/06/19 10:25:07;;;;;;;8.07;5.88;;;;;;;;;;8380594;28;20075;-87
2023/06/19 10:29:17;;;;;;;6.85;5.53;;;;;;;;;;8423753;28;20056;-87
2023/06/19 10:33:24;;;;;;;6.50;5.07;;;;;;;;;;8415840;28;20104;-87
2023/06/19 10:37:35;;;;;;;7.55;5.05;;;;;;;;;;8416187;28;20049;-88
2023/06/19 10:41:44;;;;;;;5.47;4.80;;;;;;;;;;8404596;28;20052;-87
2023/06/19 10:45:59;;;;;;;7.18;5.20;;;;;;;;;;8396411;28;20079;-95
2023/06/19 10:50:24;;;;;;;6.00;4.68;;;;;;;;;;8446042;28;20045;-87
2023/06/19 10:54:41;;;;;;;7.60;5.20;;;;;;;;;;8430239;28;20056;-88
2023/06/19 10:58:56;;;;;;;8.02;4.35;;;;;;;;;;8419048;28;20072;-86
2023/06/19 11:03:06;;;;;;;4.80;3.90;;;;;;;;;;8409880;28;20053;-88
2023/06/19 11:07:23;;;;;;;8.30;4.80;;;;;;;;;;8423837;28;20032;-88
2023/06/19 11:11:36;;;;;;;5.57;4.10;;;;;;;;;;8381705;28;20109;-88
2023/06/19 11:15:40;;;;;;;6.90;4.53;;;;;;;;;;8386498;28;20138;-92
2023/06/19 11:19:44;;;;;;;8.65;5.32;;;;;;;;;;8407224;28;20055;-88
2023/06/19 11:23:54;;;;;;;8.02;4.70;;;;;;;;;;8388296;28;20061;-89
2023/06/19 11:28:03;;;;;;;5.67;4.73;;;;;;;;;;8391404;28;20068;-86
2023/06/19 11:32:10;;;;;;;6.43;4.53;;;;;;;;;;8406362;28;20101;-86
2023/06/19 11:36:13;;;;;;;5.75;4.20;;;;;;;;;;8388927;28;20057;-86
2023/06/19 11:40:17;;;;;;;5.90;4.03;;;;;;;;;;8381395;28;20466;-86
2023/06/19 11:44:25;;;;;;;6.88;4.60;;;;;;;;;;8401688;28;20114;-86
2023/06/19 11:48:34;;;;;;;6.30;4.05;;;;;;;;;;8421428;28;20044;-90
2023/06/19 11:52:37;;;;;;;5.82;4.57;;;;;;;;;;8415161;28;20059;-92
2023/06/19 11:56:40;;;;;;;7.72;4.50;;;;;;;;;;8424664;28;20048;-87
2023/06/19 12:00:43;;;;;;;7.00;4.78;;;;;;;;;;8420636;28;20080;-95
2023/06/19 12:04:50;;;;;;;6.72;4.82;;;;;;;;;;8430508;28;20056;-93
2023/06/19 12:08:53;;;;;;;6.60;4.72;;;;;;;;;;8404495;28;20059;-92
2023/06/19 12:12:57;;;;;;;7.45;4.40;;;;;;;;;;8410670;28;20049;-89
2023/06/19 12:17:02;;;;;;;7.70;4.30;;;;;;;;;;8404219;28;20163;-90
2023/06/19 12:21:07;;;;;;;7.65;4.75;;;;;;;;;;8411669;28;20132;-92
2023/06/19 12:25:10;;;;;;;5.20;4.38;;;;;;;;;;8398469;28;20093;-94
2023/06/19 12:29:13;;;;;;;5.72;4.50;;;;;;;;;;8384042;28;20051;-91
2023/06/19 12:33:17;;;;;;;5.22;4.47;;;;;;;;;;8396556;28;20136;-94
2023/06/19 12:37:22;;;;;;;6.60;4.65;;;;;;;;;;8399500;28;20056;-94
2023/06/19 12:41:26;;;;;;;6.18;4.90;;;;;;;;;;8408835;28;20052;-96
2023/06/19 12:45:29;;;;;;;5.38;4.53;;;;;;;;;;8411644;28;20048;-90
2023/06/19 12:49:32;;;;;;;6.55;4.80;;;;;;;;;;8399936;28;20048;-93
2023/06/19 12:53:37;;;;;;;6.32;4.65;;;;;;;;;;8398849;28;20052;-89
2023/06/19 12:57:40;;;;;;;5.40;4.68;;;;;;;;;;8409468;28;20048;-96
2023/06/19 13:01:44;;;;;;;6.88;4.75;;;;;;;;;;8412382;28;20486;-94
2023/06/19 13:05:47;;;;;;;6.40;4.60;;;;;;;;;;8401217;28;20052;-95
2023/06/19 13:09:52;;;;;;;9.02;5.13;;;;;;;;;;8417216;28;20040;-89
2023/06/19 13:13:57;;;;;;;7.00;5.28;;;;;;;;;;8406499;28;20139;-92
2023/06/19 13:18:00;;;;;;;5.95;4.57;;;;;;;;;;8395785;28;20049;-93
2023/06/19 13:22:04;;;;;;;7.20;5.20;;;;;;;;;;8398398;28;20060;-89
2023/06/19 13:26:08;;;;;;;7.18;5.20;;;;;;;;;;8420270;28;20126;-93
2023/06/19 13:30:13;;;;;;;6.30;5.50;;;;;;;;;;8396297;28;20049;-94
2023/06/19 13:34:18;;;;;;;6.10;5.03;;;;;;;;;;8370573;28;20056;-89
2023/06/19 13:38:22;;;;;;;6.53;4.80;;;;;;;;;;8392992;28;20114;-93
2023/06/19 13:42:26;;;;;;;8.63;5.28;;;;;;;;;;8385584;28;20052;-90
2023/06/19 13:46:31;;;;;;;9.25;5.10;;;;;;;;;;8396468;28;20131;-91
2023/06/19 13:50:35;;;;;;;6.75;5.35;;;;;;;;;;8384601;28;20059;-95
2023/06/19 13:54:38;;;;;;;6.90;5.20;;;;;;;;;;8391911;28;20571;-90
2023/06/19 13:58:43;;;;;;;8.70;5.18;;;;;;;;;;8385965;28;20049;-95
2023/06/19 14:02:46;;;;;;;9.43;5.55;;;;;;;;;;8392483;28;20093;-95
2023/06/19 14:06:52;;;;;;;7.85;5.60;;;;;;;;;;8400279;28;20808;-90
2023/06/19 14:15:13;;;;;;;8.18;5.90;;;;;;;;;;8368506;28;20072;-91
2023/06/19 14:19:19;;;;;;;8.55;5.63;;;;;;;;;;8409375;28;20491;-92
2023/06/19 14:23:24;;;;;;;7.10;5.60;;;;;;;;;;8394649;28;20053;-89
2023/06/19 14:27:28;;;;;;;6.32;5.40;;;;;;;;;;8368714;28;20063;-92
2023/06/19 14:31:43;;;;;;;6.65;5.20;;;;;;;;;;8390180;28;20056;-91
2023/06/19 14:35:46;;;;;;;7.63;5.40;;;;;;;;;;8399310;28;20056;-91
2023/06/19 14:39:52;;;;;;;7.88;5.95;;;;;;;;;;8394955;28;20488;-94
2023/06/19 14:43:56;;;;;;;7.03;5.80;;;;;;;;;;8388602;28;20052;-92
2023/06/19 14:48:00;;;;;;;6.78;5.40;;;;;;;;;;8396206;28;20048;-91
2023/06/19 14:52:04;;;;;;;9.52;6.18;;;;;;;;;;8387882;28;20052;-92
2023/06/19 14:56:06;;;;;;;6.57;5.50;;;;;;;;;;8391138;28;20059;-92
2023/06/19 15:00:11;;;;;;;7.10;5.57;;;;;;;;;;8395191;28;20157;-92
2023/06/19 15:04:16;;;;;;;7.35;5.53;;;;;;;;;;8378752;28;20088;-91
2023/06/19 15:08:21;;;;;;;6.72;5.10;;;;;;;;;;8379739;28;20139;-94
2023/06/19 15:12:24;;;;;;;6.53;5.05;;;;;;;;;;8395565;28;20048;-92
2023/06/19 15:16:32;;;;;;;5.97;5.20;;;;;;;;;;8392234;28;20140;-91
2023/06/19 15:20:38;;;;;;;6.38;5.30;;;;;;;;;;8384527;28;20202;-91
2023/06/19 15:24:41;;;;;;;7.28;5.20;;;;;;;;;;8394492;28;20059;-91
2023/06/19 15:28:44;;;;;;;6.72;5.50;;;;;;;;;;8375835;28;20052;-93
2023/06/19 15:32:47;;;;;;;7.15;5.28;;;;;;;;;;8385954;28;20523;-94
2023/06/19 15:36:52;;;;;;;8.93;6.40;;;;;;;;;;8393310;28;20133;-95
2023/06/19 15:40:55;;;;;;;10.35;5.70;;;;;;;;;;8391544;28;20135;-90
2023/06/19 15:44:58;;;;;;;6.38;5.07;;;;;;;;;;8392140;28;20078;-93
2023/06/19 15:49:01;;;;;;;6.80;5.30;;;;;;;;;;8388806;28;20063;-92
2023/06/19 15:53:06;;;;;;;6.53;5.13;;;;;;;;;;8392983;28;20468;-92
2023/06/19 15:57:12;;;;;;;6.22;5.20;;;;;;;;;;8379670;28;20072;-91
2023/06/19 16:01:15;;;;;;;8.80;6.18;;;;;;;;;;8399233;28;20123;-92
2023/06/19 16:05:18;;;;;;;6.72;5.32;;;;;;;;;;8364339;28;20059;-90
2023/06/19 16:09:24;;;;;;;7.20;5.50;;;;;;;;;;8383495;28;20408;-91
2023/06/19 16:13:27;;;;;;;6.30;5.50;;;;;;;;;;8378667;28;20075;-91
2023/06/19 16:17:31;;;;;;;7.65;5.85;;;;;;;;;;8400786;28;20064;-91
2023/06/19 16:21:34;;;;;;;7.55;6.00;;;;;;;;;;8382176;28;20420;-89
2023/06/19 16:25:41;;;;;;;7.68;5.82;;;;;;;;;;8392418;28;20036;-87
2023/06/19 16:29:45;;;;;;;7.32;5.82;;;;;;;;;;8407728;28;20059;-88
2023/06/19 16:33:52;;;;;;;7.72;5.35;;;;;;;;;;8385763;28;20052;-88
2023/06/19 16:38:06;;;;;;;8.35;5.38;;;;;;;;;;8389008;28;20476;-91
2023/06/19 16:42:11;;;;;;;8.02;5.78;;;;;;;;;;8388936;28;20059;-94
2023/06/19 16:46:14;;;;;;;7.80;5.80;;;;;;;;;;8395349;28;20159;-94
2023/06/19 16:50:17;;;;;;;7.35;5.90;;;;;;;;;;8395415;28;20114;-93
2023/06/19 16:54:20;;;;;;;9.85;5.63;;;;;;;;;;8390194;28;20381;-91
2023/06/19 16:58:25;;;;;;;8.88;6.00;;;;;;;;;;8389843;28;20060;-94
2023/06/19 17:02:28;;;;;;;6.38;5.30;;;;;;;;;;8392640;28;20138;-95
2023/06/19 17:06:31;;;;;;;8.40;5.43;;;;;;;;;;8392468;28;21358;-91
2023/06/19 17:10:34;;;;;;;8.90;5.70;;;;;;;;;;8382207;28;20102;-90
2023/06/19 17:14:38;;;;;;;8.05;5.65;;;;;;;;;;8387042;28;20056;-91
2023/06/19 17:18:42;;;;;;;6.60;5.50;;;;;;;;;;8381104;28;20217;-91
2023/06/19 17:22:46;;;;;;;7.78;5.72;;;;;;;;;;8371309;28;20049;-92
2023/06/19 17:26:51;;;;;;;7.15;5.70;;;;;;;;;;8377733;28;20161;-94
2023/06/19 17:30:55;;;;;;;7.65;5.82;;;;;;;;;;8390362;28;20048;-95
2023/06/19 17:34:59;;;;;;;10.90;6.00;;;;;;;;;;8387325;28;20064;-94
2023/06/19 17:39:03;;;;;;;13.23;6.28;;;;;;;;;;8389743;28;20580;-94
2023/06/19 17:43:06;;;;;;;16.05;6.45;;;;;;;;;;8394248;28;20048;-92
2023/06/19 17:47:12;;;;;;;14.85;7.47;;;;;;;;;;8396943;28;20052;-95
2023/06/19 17:51:15;;;;;;;17.63;6.38;;;;;;;;;;8387455;28;20488;-92
2023/06/19 17:55:18;;;;;;;10.60;7.07;;;;;;;;;;8388023;28;20064;-92
2023/06/19 17:59:22;;;;;;;20.25;8.85;;;;;;;;;;8397245;28;20128;-95
2023/06/19 18:03:27;;;;;;;15.93;8.95;;;;;;;;;;8402560;28;20053;-90
2023/06/19 18:07:31;;;;;;;20.52;8.65;;;;;;;;;;8385690;28;20125;-92
2023/06/19 18:11:35;;;;;;;12.50;8.57;;;;;;;;;;8405612;28;20144;-93
2023/06/19 18:15:38;;;;;;;9.98;8.10;;;;;;;;;;8394164;28;20493;-91
2023/06/19 18:19:43;;;;;;;9.10;7.88;;;;;;;;;;8393400;28;20075;-92
2023/06/19 18:23:49;;;;;;;11.30;8.20;;;;;;;;;;8388425;28;20408;-93
2023/06/19 18:27:53;;;;;;;10.73;8.13;;;;;;;;;;8391870;28;20056;-91
2023/06/19 18:31:59;;;;;;;9.95;8.40;;;;;;;;;;8377324;28;20088;-95
2023/06/19 18:36:04;;;;;;;11.55;9.15;;;;;;;;;;8397679;28;20059;-92
2023/06/19 18:40:08;;;;;;;10.68;8.60;;;;;;;;;;8386992;28;20080;-93
2023/06/19 18:44:12;;;;;;;12.40;9.65;;;;;;;;;;8350424;28;20091;-91
2023/06/19 18:48:15;;;;;;;17.35;13.18;;;;;;;;;;8390214;28;20057;-91
2023/06/19 18:52:20;;;;;;;14.40;10.23;;;;;;;;;;8386822;28;20095;-90
2023/06/19 18:56:23;;;;;;;11.70;9.90;;;;;;;;;;8378327;28;20139;-90
2023/06/19 19:00:29;;;;;;;13.60;9.45;;;;;;;;;;8378504;28;20061;-94
2023/06/19 19:04:32;;;;;;;12.10;10.30;;;;;;;;;;8372057;28;20056;-93
2023/06/19 19:08:37;;;;;;;14.00;10.70;;;;;;;;;;8371046;28;20053;-92
2023/06/19 19:12:41;;;;;;;15.30;11.90;;;;;;;;;;8379031;28;20660;-92
2023/06/19 19:16:44;;;;;;;18.55;14.30;;;;;;;;;;8380661;28;20432;-93
2023/06/19 19:20:56;;;;;;;18.95;12.48;;;;;;;;;;8390538;28;20599;-93
2023/06/19 19:25:03;;;;;;;15.95;11.50;;;;;;;;;;8381998;28;20081;-95
2023/06/19 19:29:06;;;;;;;17.92;12.50;;;;;;;;;;8393831;28;20495;-96
2023/06/19 19:33:10;;;;;;;19.27;13.60;;;;;;;;;;8388515;28;20069;-92
2023/06/19 19:37:18;;;;;;;16.38;13.02;;;;;;;;;;8394884;28;20306;-94
2023/06/19 19:41:29;;;;;;;17.58;15.15;;;;;;;;;;8388392;28;20764;-94
2023/06/19 19:45:32;;;;;;;17.35;12.75;;;;;;;;;;8388887;28;20481;-92
2023/06/19 19:49:37;;;;;;;18.42;14.10;;;;;;;;;;8394340;28;20197;-94
2023/06/19 19:53:41;;;;;;;19.30;13.27;;;;;;;;;;8394901;28;20053;-93
2023/06/19 19:58:09;;;;;;;20.05;15.13;;;;;;;;;;8385713;28;20069;-93
2023/06/19 20:06:55;;;;;;;64.28;37.03;;;;;;;;;;8403398;28;20143;-89
2023/06/19 20:11:00;;;;;;;23.92;17.63;;;;;;;;;;8399796;28;20419;-89
2023/06/19 20:15:13;;;;;;;17.15;14.25;;;;;;;;;;8390127;28;20061;-89
2023/06/19 20:19:18;;;;;;;20.63;14.70;;;;;;;;;;8382540;28;20083;-89
2023/06/19 20:23:23;;;;;;;19.20;15.27;;;;;;;;;;8404229;28;20108;-89
2023/06/19 20:27:30;;;;;;;17.55;14.55;;;;;;;;;;8395564;28;20063;-88
2023/06/19 20:31:38;;;;;;;17.02;14.02;;;;;;;;;;8411725;28;20103;-89
2023/06/19 20:35:50;;;;;;;17.50;13.80;;;;;;;;;;8408519;28;20056;-90
2023/06/19 20:39:55;;;;;;;20.40;15.80;;;;;;;;;;8344007;28;20060;-90
2023/06/19 20:44:02;;;;;;;17.25;14.05;;;;;;;;;;8397597;28;20055;-88
2023/06/19 20:48:14;;;;;;;19.13;13.45;;;;;;;;;;8406505;28;20032;-90
2023/06/19 20:56:40;;;;;;;22.08;16.55;;;;;;;;;;8422403;28;20061;-89
2023/06/19 21:00:53;;;;;;;19.15;15.25;;;;;;;;;;8402505;28;20056;-90
2023/06/19 21:04:57;;;;;;;20.52;15.70;;;;;;;;;;8352863;28;20083;-89
2023/06/19 21:09:03;;;;;;;22.30;16.77;;;;;;;;;;8410342;28;20079;-89
2023/06/19 21:13:07;;;;;;;22.30;17.85;;;;;;;;;;8407041;28;20110;-88
2023/06/19 21:17:09;;;;;;;20.70;16.45;;;;;;;;;;8386220;28;20048;-89
2023/06/19 21:21:14;;;;;;;20.63;15.15;;;;;;;;;;8408221;28;20079;-89
2023/06/19 21:25:21;;;;;;;21.13;15.85;;;;;;;;;;8412785;28;20056;-89
2023/06/19 21:29:24;;;;;;;21.15;14.77;;;;;;;;;;8411967;28;20531;-89
2023/06/19 21:33:32;;;;;;;18.23;14.15;;;;;;;;;;8411271;28;20048;-89
2023/06/19 21:37:36;;;;;;;21.90;16.45;;;;;;;;;;8414507;28;20083;-89
2023/06/19 21:41:39;;;;;;;22.45;17.05;;;;;;;;;;8412577;28;20052;-90
2023/06/19 21:45:42;;;;;;;24.38;16.65;;;;;;;;;;8411339;28;20131;-89
2023/06/19 21:49:45;;;;;;;23.10;16.92;;;;;;;;;;8411452;28;20056;-89
2023/06/19 21:53:50;;;;;;;23.50;16.80;;;;;;;;;;8410419;28;20080;-88
2023/06/19 21:57:53;;;;;;;22.90;17.05;;;;;;;;;;8410150;28;20557;-90
2023/06/19 22:01:58;;;;;;;24.42;17.05;;;;;;;;;;8410119;28;20056;-90
2023/06/19 22:06:03;;;;;;;22.60;17.15;;;;;;;;;;8408683;28;20052;-90
2023/06/19 22:10:11;;;;;;;33.88;18.85;;;;;;;;;;8409298;28;20102;-90
2023/06/19 22:14:15;;;;;;;24.23;18.25;;;;;;;;;;8409955;28;20057;-89
2023/06/19 22:18:19;;;;;;;21.65;16.92;;;;;;;;;;8412618;28;20079;-90
2023/06/19 22:22:22;;;;;;;22.23;16.27;;;;;;;;;;8410647;28;20071;-90
2023/06/19 22:26:26;;;;;;;24.75;17.20;;;;;;;;;;8410887;28;20569;-89
2023/06/19 22:30:29;;;;;;;26.63;18.20;;;;;;;;;;8411248;28;20139;-89
2023/06/19 22:34:35;;;;;;;26.05;17.77;;;;;;;;;;8410175;28;20147;-90
2023/06/19 22:38:41;;;;;;;24.95;17.80;;;;;;;;;;8411469;28;20056;-90
2023/06/19 22:42:49;;;;;;;25.52;17.95;;;;;;;;;;8410032;28;20087;-89
2023/06/19 22:46:53;;;;;;;23.45;16.88;;;;;;;;;;8411571;28;20056;-90
2023/06/19 22:51:01;;;;;;;24.40;16.92;;;;;;;;;;8409189;28;20059;-90
2023/06/19 22:55:04;;;;;;;24.13;17.25;;;;;;;;;;8409070;28;20052;-89
2023/06/19 22:59:09;;;;;;;26.98;17.55;;;;;;;;;;8410077;28;20052;-90
2023/06/19 23:03:16;;;;;;;20.73;15.50;;;;;;;;;;8410679;28;20052;-90
2023/06/19 23:07:21;;;;;;;25.15;16.52;;;;;;;;;;8409676;28;20084;-89
2023/06/19 23:11:27;;;;;;;25.75;18.08;;;;;;;;;;8410707;28;20136;-89
2023/06/19 23:15:35;;;;;;;28.27;18.15;;;;;;;;;;8407651;28;20052;-90
2023/06/19 23:19:42;;;;;;;24.85;17.70;;;;;;;;;;8391777;28;20644;-89
2023/06/19 23:23:49;;;;;;;26.40;17.75;;;;;;;;;;8409572;28;20566;-89
2023/06/19 23:27:52;;;;;;;25.65;18.23;;;;;;;;;;8407455;28;20526;-90
2023/06/19 23:31:59;;;;;;;23.80;17.20;;;;;;;;;;8408965;28;20056;-89
2023/06/19 23:36:05;;;;;;;26.20;18.17;;;;;;;;;;8411274;28;20408;-90
2023/06/19 23:40:15;;;;;;;29.25;18.58;;;;;;;;;;8405724;28;20102;-90
2023/06/19 23:44:20;;;;;;;26.35;17.73;;;;;;;;;;8359378;28;20412;-90
2023/06/19 23:48:26;;;;;;;27.17;18.58;;;;;;;;;;8406253;28;20104;-90
2023/06/19 23:52:33;;;;;;;24.30;17.50;;;;;;;;;;8406574;28;20127;-89
2023/06/19 23:56:42;;;;;;;24.33;17.15;;;;;;;;;;8404864;28;20064;-90
